Time;durP1;ratioP1;P1;durP2;ratioP2;P2;SDS_P1;SDS_P2;PMS_P1;PMS_P2;Temp;Humidity;BMP_temperature;BMP_pressure;BME280_temperature;BME280_humidity;BME280_pressure;Samples;Min_cycle;Max_cycle;Signal;HPM_P1;HPM_P2
2022/12/23 00:01:01;;;;;;;;;;;;;;;10.25;78.61;97250.69;7386175;19;20301;-67
2022/12/23 00:03:28;;;;;;;;;;;;;;;10.20;78.94;97260.97;7390185;19;19919;-67
2022/12/23 00:05:54;;;;;;;;;;;;;;;10.07;79.73;97251.03;7382619;19;19923;-67
2022/12/23 00:08:21;;;;;;;;;;;;;;;10.14;79.68;97248.47;7385097;19;20332;-67
2022/12/23 00:10:49;;;;;;;;;;;;;;;10.22;79.17;97251.06;7383715;19;20282;-67
2022/12/23 00:16:01;;;;;;;;;;;;;;;10.24;79.27;97260.44;7388463;19;20339;-67
2022/12/23 00:18:28;;;;;;;;;;;;;;;10.41;78.98;97253.19;7385284;19;19939;-67
2022/12/23 00:21:01;;;;;;;;;;;;;;;10.46;78.81;97264.03;7388264;19;19919;-67
2022/12/23 00:23:34;;;;;;;;;;;;;;;10.42;78.94;97254.81;7388703;19;19926;-67
2022/12/23 00:26:01;;;;;;;;;;;;;;;10.49;78.80;97261.03;7386676;19;19966;-67
2022/12/23 00:28:28;;;;;;;;;;;;;;;10.41;79.48;97247.91;7381514;19;20339;-66
2022/12/23 00:30:58;;;;;;;;;;;;;;;10.49;79.12;97255.72;7385505;19;19910;-67
2022/12/23 00:33:25;;;;;;;;;;;;;;;10.47;78.96;97252.44;7384851;19;19943;-67
2022/12/23 00:35:52;;;;;;;;;;;;;;;10.48;79.84;97253.28;7381517;19;19947;-67
2022/12/23 00:42:52;;;;;;;;;;;;;;;10.45;79.67;97246.53;7387728;19;20002;-67
2022/12/23 00:43:52;;;;;;;;;;;;;;;10.47;79.91;97249.81;7386186;19;19914;-67
2022/12/23 00:46:18;;;;;;;;;;;;;;;10.57;79.51;97251.38;7386413;19;19943;-66
2022/12/23 00:51:30;;;;;;;;;;;;;;;10.61;79.54;97253.47;7386534;19;19929;-67
2022/12/23 00:53:57;;;;;;;;;;;;;;;10.53;79.86;97258.81;7386875;19;19923;-67
2022/12/23 00:56:23;;;;;;;;;;;;;;;10.63;79.70;97255.91;7387446;19;19951;-67
2022/12/23 00:58:50;;;;;;;;;;;;;;;10.62;79.56;97260.38;7380278;19;19964;-67
2022/12/23 01:06:51;;;;;;;;;;;;;;;10.69;79.81;97263.94;7385835;19;20347;-66
2022/12/23 01:09:18;;;;;;;;;;;;;;;10.69;79.69;97265.75;7386079;19;19915;-67
2022/12/23 01:11:44;;;;;;;;;;;;;;;10.66;79.77;97272.22;7384587;19;19958;-67
2022/12/23 01:14:12;;;;;;;;;;;;;;;10.77;79.80;97274.44;7381270;19;19951;-66
2022/12/23 01:16:39;;;;;;;;;;;;;;;10.58;80.40;97269.69;7383519;19;19923;-67
2022/12/23 01:19:06;;;;;;;;;;;;;;;10.64;80.36;97281.38;7385557;19;19915;-67
2022/12/23 01:21:32;;;;;;;;;;;;;;;10.68;80.55;97288.75;7383477;19;19922;-66
2022/12/23 01:23:59;;;;;;;;;;;;;;;10.86;79.86;97290.19;7382182;19;19943;-67
2022/12/23 01:26:25;;;;;;;;;;;;;;;10.85;79.68;97284.09;7383595;19;19923;-67
2022/12/23 01:28:55;;;;;;;;;;;;;;;10.84;80.09;97290.38;7379203;19;20474;-67
2022/12/23 01:31:23;;;;;;;;;;;;;;;10.94;80.15;97292.75;7381350;19;19963;-67
2022/12/23 01:33:49;;;;;;;;;;;;;;;10.97;79.97;97295.03;7382676;19;19998;-67
2022/12/23 01:36:16;;;;;;;;;;;;;;;11.01;79.59;97298.94;7384440;19;19915;-67
2022/12/23 01:38:43;;;;;;;;;;;;;;;10.99;79.67;97296.47;7379758;19;19919;-67
2022/12/23 01:44:27;;;;;;;;;;;;;;;11.07;79.76;97305.31;7387220;19;19941;-67
2022/12/23 01:46:53;;;;;;;;;;;;;;;11.13;79.64;97310.69;7384081;19;20375;-67
2022/12/23 01:49:20;;;;;;;;;;;;;;;11.10;79.63;97313.72;7384259;19;19915;-67
2022/12/23 01:51:46;;;;;;;;;;;;;;;11.27;79.28;97311.69;7388011;19;19929;-67
2022/12/23 01:54:13;;;;;;;;;;;;;;;11.29;78.96;97307.00;7379503;19;19942;-67
2022/12/23 01:56:40;;;;;;;;;;;;;;;11.33;79.02;97310.13;7383190;19;19919;-67
2022/12/23 02:03:41;;;;;;;;;;;;;;;11.41;78.77;97318.75;7382691;19;19922;-67
2022/12/23 02:04:48;;;;;;;;;;;;;;;11.40;78.88;97327.72;7382894;19;20351;-66
2022/12/23 02:10:00;;;;;;;;;;;;;;;11.36;79.49;97334.38;7381560;19;19943;-67
2022/12/23 02:12:36;;;;;;;;;;;;;;;11.36;79.27;97334.38;7391738;19;19923;-67
2022/12/23 02:17:57;;;;;;;;;;;;;;;11.53;78.72;97345.59;7389762;19;19923;-67
2022/12/23 02:20:35;;;;;;;;;;;;;;;11.52;78.90;97343.13;7387766;19;19918;-67
2022/12/23 02:23:17;;;;;;;;;;;;;;;11.58;78.96;97352.97;7391271;19;19935;-67
2022/12/23 02:25:58;;;;;;;;;;;;;;;11.57;78.75;97348.69;7386179;19;19927;-67
2022/12/23 02:28:35;;;;;;;;;;;;;;;11.61;78.80;97364.03;7388414;19;19926;-67
2022/12/23 02:31:09;;;;;;;;;;;;;;;11.54;78.93;97363.13;7386210;19;19943;-67
2022/12/23 02:33:50;;;;;;;;;;;;;;;11.64;78.86;97361.00;7391068;19;19926;-67
2022/12/23 02:36:16;;;;;;;;;;;;;;;11.68;78.59;97368.56;7390125;19;20446;-67
2022/12/23 02:38:58;;;;;;;;;;;;;;;11.71;78.61;97371.66;7387057;19;20275;-67
2022/12/23 02:41:37;;;;;;;;;;;;;;;11.66;78.93;97376.69;7390123;19;19929;-68
2022/12/23 02:44:09;;;;;;;;;;;;;;;11.67;78.74;97378.34;7390431;19;19932;-67
2022/12/23 02:46:38;;;;;;;;;;;;;;;11.70;78.92;97379.81;7391653;19;19911;-67
2022/12/23 02:49:24;;;;;;;;;;;;;;;11.73;78.98;97377.59;7387874;19;20331;-67
2022/12/23 02:51:52;;;;;;;;;;;;;;;11.67;79.13;97385.47;7388278;19;19918;-67
2022/12/23 02:54:24;;;;;;;;;;;;;;;11.61;79.34;97392.31;7389043;19;19919;-67
2022/12/23 02:56:50;;;;;;;;;;;;;;;11.59;79.49;97399.66;7384128;19;19923;-66
2022/12/23 02:59:18;;;;;;;;;;;;;;;11.63;79.36;97393.78;7382396;19;21186;-66
2022/12/23 03:01:45;;;;;;;;;;;;;;;11.60;79.95;97406.56;7390221;19;19930;-67
2022/12/23 03:04:11;;;;;;;;;;;;;;;11.70;79.35;97399.16;7393111;19;19919;-67
2022/12/23 03:06:38;;;;;;;;;;;;;;;11.75;79.24;97412.66;7389998;19;19915;-66
2022/12/23 03:09:05;;;;;;;;;;;;;;;11.72;79.27;97407.75;7381811;19;19925;-66
2022/12/23 03:11:44;;;;;;;;;;;;;;;11.68;79.52;97409.13;7391457;19;19955;-67
2022/12/23 03:14:29;;;;;;;;;;;;;;;11.73;79.45;97406.72;7387223;19;19914;-67
2022/12/23 03:17:06;;;;;;;;;;;;;;;11.72;79.36;97405.09;7387660;19;19970;-67
2022/12/23 03:19:39;;;;;;;;;;;;;;;11.75;79.23;97415.31;7386620;19;19925;-66
2022/12/23 03:22:08;;;;;;;;;;;;;;;11.66;79.41;97424.38;7381660;19;19915;-67
2022/12/23 03:24:43;;;;;;;;;;;;;;;11.70;79.33;97423.00;7390155;19;20258;-67
2022/12/23 03:27:13;;;;;;;;;;;;;;;11.72;79.45;97423.66;7386232;19;19919;-67
2022/12/23 03:29:41;;;;;;;;;;;;;;;11.74;79.56;97431.41;7384203;19;19919;-66
2022/12/23 03:32:07;;;;;;;;;;;;;;;11.73;79.67;97432.41;7386294;19;19943;-67
2022/12/23 03:34:35;;;;;;;;;;;;;;;11.77;79.41;97425.72;7387259;19;19914;-64
2022/12/23 03:37:03;;;;;;;;;;;;;;;11.79;79.17;97434.31;7381425;19;19932;-67
2022/12/23 03:39:31;;;;;;;;;;;;;;;11.79;79.33;97432.47;7386343;19;19918;-67
2022/12/23 03:41:59;;;;;;;;;;;;;;;11.67;79.76;97433.16;7390050;19;19957;-66
2022/12/23 03:44:29;;;;;;;;;;;;;;;11.63;80.17;97448.59;7389715;19;19919;-66
2022/12/23 03:47:09;;;;;;;;;;;;;;;11.62;80.15;97447.78;7387407;19;19925;-66
2022/12/23 03:49:44;;;;;;;;;;;;;;;11.67;79.98;97449.06;7387590;19;19914;-66
2022/12/23 03:52:11;;;;;;;;;;;;;;;11.59;80.22;97448.16;7388977;19;19918;-66
2022/12/23 03:54:53;;;;;;;;;;;;;;;11.57;80.43;97446.69;7384937;19;19915;-66
2022/12/23 03:57:20;;;;;;;;;;;;;;;11.57;80.24;97449.34;7388820;19;19926;-66
2022/12/23 03:59:50;;;;;;;;;;;;;;;11.58;80.13;97456.28;7383966;19;20382;-66
2022/12/23 04:02:16;;;;;;;;;;;;;;;11.58;79.71;97449.13;7384551;19;19925;-66
2022/12/23 04:04:50;;;;;;;;;;;;;;;11.53;79.41;97459.50;7387050;19;19915;-66
2022/12/23 04:07:19;;;;;;;;;;;;;;;11.38;79.33;97464.78;7387695;19;19927;-66
2022/12/23 04:09:45;;;;;;;;;;;;;;;11.41;79.74;97466.25;7389873;19;19952;-66
2022/12/23 04:12:12;;;;;;;;;;;;;;;11.45;79.66;97464.03;7386996;19;19972;-66
2022/12/23 04:14:44;;;;;;;;;;;;;;;11.32;80.11;97465.53;7381306;19;19922;-66
2022/12/23 04:17:10;;;;;;;;;;;;;;;11.39;79.72;97458.47;7386457;19;19915;-66
2022/12/23 04:19:37;;;;;;;;;;;;;;;11.39;79.77;97463.78;7385792;19;19919;-66
2022/12/23 04:22:03;;;;;;;;;;;;;;;11.44;79.91;97468.53;7387438;19;19927;-66
2022/12/23 04:24:30;;;;;;;;;;;;;;;11.37;80.13;97467.59;7389813;19;19930;-66
2022/12/23 04:26:56;;;;;;;;;;;;;;;11.38;79.78;97463.97;7389318;19;20210;-66
2022/12/23 04:29:23;;;;;;;;;;;;;;;11.41;79.68;97469.72;7386954;19;20312;-66
2022/12/23 04:31:49;;;;;;;;;;;;;;;11.47;79.74;97478.75;7389091;19;19947;-67
2022/12/23 04:34:16;;;;;;;;;;;;;;;11.47;80.06;97488.53;7385369;19;19919;-66
2022/12/23 04:36:43;;;;;;;;;;;;;;;11.54;80.00;97484.16;7387157;19;19934;-66
2022/12/23 04:39:09;;;;;;;;;;;;;;;11.50;79.53;97477.56;7384121;19;19929;-67
2022/12/23 04:41:36;;;;;;;;;;;;;;;11.36;80.23;97476.56;7376766;19;19918;-67
2022/12/23 04:44:02;;;;;;;;;;;;;;;11.37;79.98;97475.56;7384560;19;19933;-66
2022/12/23 04:46:29;;;;;;;;;;;;;;;11.40;80.87;97478.69;7389162;19;19918;-66
2022/12/23 04:48:55;;;;;;;;;;;;;;;11.58;79.99;97482.75;7384322;19;19915;-66
2022/12/23 04:51:22;;;;;;;;;;;;;;;11.55;79.70;97499.03;7387040;19;19922;-67
2022/12/23 04:53:49;;;;;;;;;;;;;;;11.51;79.67;97497.75;7386619;19;20296;-66
2022/12/23 04:56:15;;;;;;;;;;;;;;;11.52;79.81;97502.88;7385107;19;19922;-65
2022/12/23 04:58:42;;;;;;;;;;;;;;;11.60;79.71;97500.13;7382220;19;19936;-65
2022/12/23 05:01:09;;;;;;;;;;;;;;;11.60;79.82;97507.25;7385424;19;19979;-65
2022/12/23 05:03:38;;;;;;;;;;;;;;;11.61;79.88;97507.06;7385079;19;19953;-65
2022/12/23 05:06:05;;;;;;;;;;;;;;;11.62;80.17;97515.84;7387134;19;22205;-65
2022/12/23 05:08:31;;;;;;;;;;;;;;;11.58;80.47;97525.97;7386201;19;19919;-65
2022/12/23 05:10:58;;;;;;;;;;;;;;;11.68;80.29;97525.69;7384537;19;19939;-65
2022/12/23 05:13:25;;;;;;;;;;;;;;;11.69;80.01;97518.56;7382752;19;19922;-65
2022/12/23 05:15:52;;;;;;;;;;;;;;;11.79;80.42;97521.75;7386299;19;19929;-65
2022/12/23 05:18:18;;;;;;;;;;;;;;;11.92;80.02;97518.50;7385068;19;19932;-65
2022/12/23 05:20:45;;;;;;;;;;;;;;;11.85;80.06;97527.16;7381240;19;19922;-65
2022/12/23 05:23:12;;;;;;;;;;;;;;;11.60;80.84;97523.97;7384937;19;20358;-65
2022/12/23 05:25:38;;;;;;;;;;;;;;;11.83;80.37;97533.66;7386103;19;19922;-65
2022/12/23 05:28:06;;;;;;;;;;;;;;;11.89;79.87;97521.50;7386067;19;20372;-65
2022/12/23 05:30:33;;;;;;;;;;;;;;;12.08;79.38;97516.47;7385602;19;19922;-65
2022/12/23 05:32:59;;;;;;;;;;;;;;;11.85;79.93;97516.56;7387454;19;20368;-65
2022/12/23 05:35:26;;;;;;;;;;;;;;;11.99;79.51;97524.69;7381675;19;19915;-66
2022/12/23 05:37:53;;;;;;;;;;;;;;;11.96;79.83;97522.44;7383792;19;19918;-65
2022/12/23 05:40:19;;;;;;;;;;;;;;;12.06;79.25;97526.44;7384145;19;19918;-66
2022/12/23 05:42:55;;;;;;;;;;;;;;;12.11;79.10;97522.38;7385268;19;20393;-66
2022/12/23 05:45:21;;;;;;;;;;;;;;;12.23;78.60;97527.00;7380454;19;19923;-66
2022/12/23 05:47:48;;;;;;;;;;;;;;;12.22;78.55;97529.88;7386775;19;19930;-66
2022/12/23 05:50:14;;;;;;;;;;;;;;;12.18;78.48;97536.53;7387455;19;19921;-66
2022/12/23 05:52:41;;;;;;;;;;;;;;;12.03;78.56;97542.72;7382790;19;19919;-66
2022/12/23 05:55:07;;;;;;;;;;;;;;;11.97;78.54;97546.06;7381260;19;19918;-66
2022/12/23 05:57:34;;;;;;;;;;;;;;;11.98;78.92;97547.75;7376383;19;19919;-67
2022/12/23 06:00:02;;;;;;;;;;;;;;;11.95;79.09;97552.56;7382139;19;19927;-67
2022/12/23 06:02:37;;;;;;;;;;;;;;;12.05;78.77;97542.50;7384705;19;19919;-66
2022/12/23 06:05:04;;;;;;;;;;;;;;;12.00;78.85;97537.75;7378057;19;20346;-67
2022/12/23 06:07:33;;;;;;;;;;;;;;;11.92;79.12;97547.66;7380249;19;19923;-67
2022/12/23 06:10:00;;;;;;;;;;;;;;;11.93;79.15;97547.47;7377731;19;20607;-66
2022/12/23 06:12:27;;;;;;;;;;;;;;;11.90;79.41;97554.94;7384868;19;19925;-66
2022/12/23 06:14:55;;;;;;;;;;;;;;;11.98;79.18;97555.69;7380379;19;20339;-67
2022/12/23 06:17:23;;;;;;;;;;;;;;;12.02;78.75;97551.66;7385235;19;19915;-67
2022/12/23 06:19:52;;;;;;;;;;;;;;;11.99;78.72;97554.69;7386527;19;19974;-66
2022/12/23 06:22:20;;;;;;;;;;;;;;;12.14;78.47;97549.38;7377416;19;19943;-66
2022/12/23 06:24:47;;;;;;;;;;;;;;;12.00;78.79;97556.31;7378722;19;19927;-67
2022/12/23 06:27:13;;;;;;;;;;;;;;;12.04;78.67;97551.47;7383832;19;19932;-67
2022/12/23 06:29:40;;;;;;;;;;;;;;;12.15;78.31;97556.28;7383976;19;19923;-66
2022/12/23 06:32:06;;;;;;;;;;;;;;;12.10;78.31;97555.22;7382631;19;20340;-66
2022/12/23 06:34:36;;;;;;;;;;;;;;;12.37;77.58;97561.66;7383107;19;19933;-66
2022/12/23 06:37:03;;;;;;;;;;;;;;;12.28;77.73;97566.25;7385738;19;20758;-66
2022/12/23 06:39:29;;;;;;;;;;;;;;;12.37;77.41;97566.94;7378344;19;19994;-67
2022/12/23 06:41:56;;;;;;;;;;;;;;;12.33;77.35;97560.38;7377197;19;19933;-66
2022/12/23 06:44:22;;;;;;;;;;;;;;;12.15;77.72;97556.28;7384304;19;19911;-67
2022/12/23 06:46:49;;;;;;;;;;;;;;;12.20;77.44;97561.88;7384261;19;19939;-66
2022/12/23 06:49:16;;;;;;;;;;;;;;;12.19;78.01;97560.25;7380294;19;19910;-67
2022/12/23 06:51:42;;;;;;;;;;;;;;;12.09;77.94;97565.00;7383912;19;19943;-66
2022/12/23 06:54:10;;;;;;;;;;;;;;;12.11;78.28;97556.84;7383754;19;19926;-66
2022/12/23 06:56:37;;;;;;;;;;;;;;;12.16;78.02;97563.22;7382727;19;19923;-66
2022/12/23 06:59:04;;;;;;;;;;;;;;;12.15;78.01;97564.25;7384508;19;19911;-66
2022/12/23 07:01:30;;;;;;;;;;;;;;;12.21;77.83;97565.34;7389656;19;19915;-66
2022/12/23 07:03:57;;;;;;;;;;;;;;;12.06;78.12;97573.34;7390450;19;19938;-66
2022/12/23 07:06:23;;;;;;;;;;;;;;;12.08;78.02;97573.94;7393192;19;19918;-66
2022/12/23 07:08:50;;;;;;;;;;;;;;;12.07;78.26;97585.56;7385340;19;19926;-66
2022/12/23 07:11:17;;;;;;;;;;;;;;;11.92;79.11;97584.75;7388644;19;19929;-66
2022/12/23 07:13:44;;;;;;;;;;;;;;;12.03;78.84;97587.78;7386903;19;19918;-66
2022/12/23 07:16:11;;;;;;;;;;;;;;;12.01;78.86;97591.63;7379696;19;20277;-66
2022/12/23 07:18:37;;;;;;;;;;;;;;;12.12;78.55;97592.97;7385213;19;19986;-66
2022/12/23 07:21:04;;;;;;;;;;;;;;;12.05;78.50;97590.22;7386543;19;19922;-66
2022/12/23 07:23:38;;;;;;;;;;;;;;;11.91;79.17;97583.94;7389540;19;19918;-67
2022/12/23 07:26:05;;;;;;;;;;;;;;;11.82;79.78;97582.34;7388507;19;19907;-68
2022/12/23 07:28:32;;;;;;;;;;;;;;;11.84;79.36;97589.09;7383790;19;19926;-67
2022/12/23 07:30:58;;;;;;;;;;;;;;;11.95;79.37;97579.06;7384709;19;20262;-66
2022/12/23 07:33:25;;;;;;;;;;;;;;;11.83;79.62;97573.41;7392199;19;19921;-67
2022/12/23 07:35:56;;;;;;;;;;;;;;;11.80;79.91;97579.06;7387241;19;19915;-66
2022/12/23 07:38:23;;;;;;;;;;;;;;;11.78;79.99;97584.53;7388503;19;19931;-67
2022/12/23 07:40:50;;;;;;;;;;;;;;;11.75;79.77;97589.41;7388314;19;19941;-67
2022/12/23 07:43:22;;;;;;;;;;;;;;;11.75;79.72;97586.75;7387572;19;19921;-67
2022/12/23 07:45:54;;;;;;;;;;;;;;;11.85;79.75;97582.81;7384600;19;19926;-67
2022/12/23 07:48:27;;;;;;;;;;;;;;;11.93;79.67;97587.22;7384349;19;19922;-67
2022/12/23 07:50:58;;;;;;;;;;;;;;;11.85;79.59;97585.47;7378406;19;19922;-67
2022/12/23 07:53:27;;;;;;;;;;;;;;;11.86;79.83;97581.81;7389557;19;19923;-66
2022/12/23 07:55:54;;;;;;;;;;;;;;;11.84;80.02;97577.69;7380562;19;19933;-67
2022/12/23 07:58:22;;;;;;;;;;;;;;;11.77;79.81;97580.25;7387670;19;19926;-66
2022/12/23 08:00:49;;;;;;;;;;;;;;;11.89;79.92;97579.81;7387953;19;19939;-66
2022/12/23 08:03:15;;;;;;;;;;;;;;;11.96;79.71;97600.13;7387686;19;20617;-68
2022/12/23 08:05:42;;;;;;;;;;;;;;;11.89;79.54;97593.06;7388499;19;19933;-66
2022/12/23 08:08:09;;;;;;;;;;;;;;;11.77;79.79;97597.97;7385516;19;20260;-66
2022/12/23 08:10:36;;;;;;;;;;;;;;;11.78;80.08;97605.75;7388064;19;19923;-67
2022/12/23 08:13:10;;;;;;;;;;;;;;;11.76;80.22;97607.75;7387594;19;19919;-66
2022/12/23 08:15:36;;;;;;;;;;;;;;;11.95;80.27;97621.50;7385016;19;19922;-67
2022/12/23 08:18:03;;;;;;;;;;;;;;;11.96;80.27;97612.56;7389460;19;19942;-67
2022/12/23 08:20:30;;;;;;;;;;;;;;;11.98;80.33;97621.97;7391840;19;19947;-66
2022/12/23 08:22:56;;;;;;;;;;;;;;;12.06;80.09;97616.56;7387601;19;20354;-66
2022/12/23 08:25:23;;;;;;;;;;;;;;;12.11;80.10;97616.00;7389979;19;20296;-67
2022/12/23 08:27:50;;;;;;;;;;;;;;;12.15;79.91;97619.13;7385715;19;19955;-66
2022/12/23 08:30:17;;;;;;;;;;;;;;;12.24;79.82;97613.53;7386334;19;19946;-68
2022/12/23 08:32:44;;;;;;;;;;;;;;;12.23;79.90;97613.72;7388379;19;19919;-67
2022/12/23 08:35:10;;;;;;;;;;;;;;;12.24;80.09;97615.34;7387729;19;20356;-67
2022/12/23 08:37:37;;;;;;;;;;;;;;;12.14;80.07;97607.69;7385954;19;19922;-67
2022/12/23 08:40:03;;;;;;;;;;;;;;;12.24;80.34;97604.75;7387019;19;19947;-67
2022/12/23 08:42:33;;;;;;;;;;;;;;;12.30;79.76;97607.50;7387008;19;19922;-68
2022/12/23 08:44:59;;;;;;;;;;;;;;;12.39;79.42;97610.03;7386690;19;19925;-67
2022/12/23 08:47:26;;;;;;;;;;;;;;;12.30;79.59;97590.75;7384460;19;20332;-69
2022/12/23 08:49:53;;;;;;;;;;;;;;;12.21;79.63;97597.97;7384690;19;19951;-67
2022/12/23 08:52:20;;;;;;;;;;;;;;;12.23;79.67;97580.06;7388818;19;19923;-67
2022/12/23 08:54:46;;;;;;;;;;;;;;;12.31;79.91;97584.44;7389643;19;19917;-67
2022/12/23 08:57:13;;;;;;;;;;;;;;;12.37;79.80;97593.47;7386133;19;20348;-66
2022/12/23 08:59:47;;;;;;;;;;;;;;;12.38;79.53;97595.13;7381980;19;19919;-66
2022/12/23 09:02:14;;;;;;;;;;;;;;;12.41;79.58;97600.06;7382185;19;20008;-68
2022/12/23 09:04:41;;;;;;;;;;;;;;;12.50;79.55;97599.75;7383756;19;19914;-67
2022/12/23 09:07:07;;;;;;;;;;;;;;;12.61;79.35;97605.56;7387228;19;19914;-67
2022/12/23 09:09:35;;;;;;;;;;;;;;;12.69;78.93;97611.63;7384811;19;20347;-67
2022/12/23 09:12:02;;;;;;;;;;;;;;;12.65;79.13;97612.16;7382487;19;19930;-67
2022/12/23 09:14:29;;;;;;;;;;;;;;;12.59;79.05;97615.56;7386934;19;19934;-67
2022/12/23 09:16:55;;;;;;;;;;;;;;;12.61;79.09;97613.53;7385750;19;19929;-67
2022/12/23 09:19:22;;;;;;;;;;;;;;;12.62;78.98;97613.38;7377531;19;20199;-67
2022/12/23 09:21:48;;;;;;;;;;;;;;;12.62;79.25;97618.66;7384619;19;19926;-67
2022/12/23 09:24:15;;;;;;;;;;;;;;;12.72;79.22;97613.06;7388434;19;20579;-67
2022/12/23 09:26:41;;;;;;;;;;;;;;;12.61;79.30;97611.72;7384578;19;20371;-67
2022/12/23 09:29:10;;;;;;;;;;;;;;;12.60;79.65;97610.06;7377313;19;19947;-66
2022/12/23 09:31:39;;;;;;;;;;;;;;;12.67;79.57;97600.34;7384531;19;20454;-66
2022/12/23 09:34:06;;;;;;;;;;;;;;;12.65;79.66;97601.56;7384513;19;19982;-67
2022/12/23 09:36:32;;;;;;;;;;;;;;;12.61;79.70;97602.94;7382501;19;20021;-68
2022/12/23 09:38:59;;;;;;;;;;;;;;;12.67;79.87;97594.22;7379034;19;20356;-66
2022/12/23 09:41:37;;;;;;;;;;;;;;;12.68;79.91;97594.03;7383548;19;20278;-68
2022/12/23 09:44:08;;;;;;;;;;;;;;;12.64;79.68;97587.47;7380970;19;19939;-67
2022/12/23 09:46:34;;;;;;;;;;;;;;;12.58;79.84;97579.41;7381923;19;19987;-67
2022/12/23 09:49:03;;;;;;;;;;;;;;;12.66;79.92;97577.47;7382460;19;19914;-67
2022/12/23 09:51:29;;;;;;;;;;;;;;;12.70;79.93;97569.97;7379896;19;19944;-67
2022/12/23 09:54:02;;;;;;;;;;;;;;;12.79;79.64;97575.97;7380850;19;20600;-67
2022/12/23 09:56:34;;;;;;;;;;;;;;;12.77;79.56;97568.22;7380761;19;20384;-68
2022/12/23 09:59:07;;;;;;;;;;;;;;;12.75;79.57;97578.19;7376961;19;20002;-67
2022/12/23 10:01:34;;;;;;;;;;;;;;;12.77;79.45;97580.63;7381929;19;19918;-67
2022/12/23 10:04:13;;;;;;;;;;;;;;;12.86;79.33;97575.03;7383702;19;19929;-68
2022/12/23 10:06:39;;;;;;;;;;;;;;;12.89;79.50;97571.16;7385072;19;19946;-68
2022/12/23 10:09:06;;;;;;;;;;;;;;;12.90;79.53;97571.00;7377605;19;19971;-67
2022/12/23 10:11:36;;;;;;;;;;;;;;;12.95;79.25;97570.41;7379340;19;19930;-68
2022/12/23 10:14:08;;;;;;;;;;;;;;;12.92;78.98;97558.31;7384396;19;19915;-67
2022/12/23 10:16:38;;;;;;;;;;;;;;;12.80;79.38;97554.56;7378012;19;19927;-67
2022/12/23 10:19:12;;;;;;;;;;;;;;;12.85;79.31;97553.97;7375813;19;19925;-66
2022/12/23 10:21:41;;;;;;;;;;;;;;;12.83;79.13;97548.84;7383039;19;19915;-68
2022/12/23 10:24:16;;;;;;;;;;;;;;;12.80;79.34;97551.91;7381243;19;19927;-68
2022/12/23 10:26:47;;;;;;;;;;;;;;;12.82;79.18;97555.19;7385104;19;19918;-68
2022/12/23 10:29:14;;;;;;;;;;;;;;;12.86;79.02;97547.66;7378749;19;20403;-68
2022/12/23 10:31:47;;;;;;;;;;;;;;;12.98;78.45;97547.94;7386339;19;19929;-68
2022/12/23 10:34:29;;;;;;;;;;;;;;;13.05;78.48;97551.50;7389595;19;19934;-67
2022/12/23 10:37:26;;;;;;;;;;;;;;;13.02;78.52;97550.03;7388563;19;19953;-68
2022/12/23 10:40:12;;;;;;;;;;;;;;;13.01;78.78;97553.72;7389582;19;19940;-68
2022/12/23 10:42:44;;;;;;;;;;;;;;;13.14;78.31;97550.34;7386407;19;19922;-68
2022/12/23 10:45:30;;;;;;;;;;;;;;;13.09;78.60;97540.31;7389062;19;19926;-68
2022/12/23 10:48:05;;;;;;;;;;;;;;;13.17;78.41;97537.50;7387652;19;19926;-69
2022/12/23 10:50:45;;;;;;;;;;;;;;;13.20;78.73;97538.16;7393960;19;19918;-68
2022/12/23 10:53:32;;;;;;;;;;;;;;;13.30;78.40;97530.69;7387092;19;19934;-68
2022/12/23 10:55:59;;;;;;;;;;;;;;;13.25;78.18;97514.47;7387050;19;20469;-68
2022/12/23 10:58:25;;;;;;;;;;;;;;;13.22;78.07;97518.34;7386459;19;19918;-68
2022/12/23 11:00:53;;;;;;;;;;;;;;;13.07;78.48;97515.78;7388617;19;19914;-68
2022/12/23 11:03:27;;;;;;;;;;;;;;;12.97;78.92;97499.34;7384606;19;20490;-68
2022/12/23 11:05:54;;;;;;;;;;;;;;;12.87;79.38;97498.84;7388053;19;19923;-68
2022/12/23 11:08:24;;;;;;;;;;;;;;;12.81;79.28;97503.09;7385508;19;19914;-68
2022/12/23 11:10:51;;;;;;;;;;;;;;;12.80;79.42;97504.13;7386653;19;19930;-68
2022/12/23 11:13:25;;;;;;;;;;;;;;;12.87;79.15;97499.66;7388102;19;19934;-67
2022/12/23 11:15:52;;;;;;;;;;;;;;;12.68;79.74;97495.84;7382019;19;19930;-69
2022/12/23 11:18:19;;;;;;;;;;;;;;;12.62;80.12;97493.13;7387803;19;20336;-67
2022/12/23 11:21:05;;;;;;;;;;;;;;;12.56;80.41;97488.56;7386334;19;19922;-68
2022/12/23 11:23:33;;;;;;;;;;;;;;;12.65;80.29;97480.31;7387454;19;19919;-68
2022/12/23 11:26:10;;;;;;;;;;;;;;;12.73;80.09;97482.00;7385080;19;19923;-67
2022/12/23 11:28:37;;;;;;;;;;;;;;;12.71;80.29;97476.88;7383190;19;19926;-68
2022/12/23 11:31:08;;;;;;;;;;;;;;;12.71;80.64;97474.22;7383405;19;19932;-68
2022/12/23 11:33:36;;;;;;;;;;;;;;;12.89;79.85;97467.63;7387293;19;19919;-67
2022/12/23 11:36:06;;;;;;;;;;;;;;;12.89;80.11;97473.75;7387570;19;19942;-69
2022/12/23 11:38:47;;;;;;;;;;;;;;;12.86;80.35;97457.41;7388418;19;19929;-67
2022/12/23 11:41:17;;;;;;;;;;;;;;;12.83;80.47;97452.50;7383121;19;19947;-69
2022/12/23 11:43:43;;;;;;;;;;;;;;;12.86;80.68;97446.78;7380922;19;20312;-68
2022/12/23 11:46:14;;;;;;;;;;;;;;;12.87;80.61;97435.97;7384415;19;19918;-68
2022/12/23 11:48:41;;;;;;;;;;;;;;;12.79;81.13;97438.75;7388361;19;19911;-67
2022/12/23 11:51:08;;;;;;;;;;;;;;;12.76;80.94;97435.69;7383277;19;19927;-68
2022/12/23 11:53:35;;;;;;;;;;;;;;;12.94;80.72;97436.03;7384385;19;19951;-68
2022/12/23 11:56:06;;;;;;;;;;;;;;;13.07;80.38;97433.44;7380871;19;19929;-67
2022/12/23 11:58:56;;;;;;;;;;;;;;;13.18;79.89;97438.22;7380927;19;19923;-68
2022/12/23 12:01:23;;;;;;;;;;;;;;;13.13;79.95;97427.34;7374084;19;19927;-67
2022/12/23 12:03:58;;;;;;;;;;;;;;;13.17;79.99;97425.97;7381498;19;19914;-67
2022/12/23 12:06:28;;;;;;;;;;;;;;;13.13;80.11;97411.41;7381304;19;21326;-67
2022/12/23 12:08:55;;;;;;;;;;;;;;;13.15;79.67;97411.25;7376155;19;19919;-68
2022/12/23 12:11:26;;;;;;;;;;;;;;;13.17;79.67;97412.69;7385764;19;19925;-68
2022/12/23 12:13:59;;;;;;;;;;;;;;;13.16;79.79;97404.91;7379412;19;19922;-68
2022/12/23 12:16:29;;;;;;;;;;;;;;;13.16;79.69;97396.94;7380882;19;19923;-68
2022/12/23 12:19:18;;;;;;;;;;;;;;;13.21;79.56;97399.81;7386812;19;19911;-68
2022/12/23 12:21:45;;;;;;;;;;;;;;;13.17;79.45;97387.97;7386701;19;19922;-67
2022/12/23 12:24:19;;;;;;;;;;;;;;;13.20;79.54;97384.91;7385460;19;19925;-68
2022/12/23 12:26:49;;;;;;;;;;;;;;;13.16;79.88;97375.69;7383546;19;20005;-68
2022/12/23 12:29:22;;;;;;;;;;;;;;;13.08;80.14;97368.69;7379111;19;19921;-68
2022/12/23 12:31:53;;;;;;;;;;;;;;;12.83;81.02;97364.91;7381082;19;20336;-67
2022/12/23 12:34:38;;;;;;;;;;;;;;;12.86;81.38;97360.00;7383557;19;20369;-67
2022/12/23 12:37:09;;;;;;;;;;;;;;;12.92;80.99;97358.41;7384841;19;19922;-67
2022/12/23 12:39:40;;;;;;;;;;;;;;;12.93;81.00;97360.06;7382982;19;19930;-67
2022/12/23 12:42:14;;;;;;;;;;;;;;;12.94;81.26;97361.69;7384079;19;19923;-67
2022/12/23 12:44:52;;;;;;;;;;;;;;;13.09;80.54;97349.13;7383527;19;19919;-67
2022/12/23 12:47:32;;;;;;;;;;;;;;;13.08;80.64;97354.59;7382037;19;20201;-67
2022/12/23 12:50:26;;;;;;;;;;;;;;;13.07;80.55;97360.94;7383411;19;19918;-68
2022/12/23 12:52:54;;;;;;;;;;;;;;;13.11;80.62;97347.09;7384773;19;19922;-68
2022/12/23 12:55:47;;;;;;;;;;;;;;;13.13;80.46;97339.72;7378246;19;19923;-68
2022/12/23 12:58:17;;;;;;;;;;;;;;;13.14;80.50;97335.25;7379739;19;19917;-67
2022/12/23 13:00:52;;;;;;;;;;;;;;;13.17;80.26;97333.00;7381422;19;19933;-68
2022/12/23 13:03:28;;;;;;;;;;;;;;;13.13;80.19;97326.44;7383374;19;19952;-69
2022/12/23 13:05:57;;;;;;;;;;;;;;;12.91;81.07;97332.88;7385148;19;19927;-68
2022/12/23 13:08:39;;;;;;;;;;;;;;;12.81;81.69;97327.09;7373462;19;19911;-68
2022/12/23 13:11:29;;;;;;;;;;;;;;;12.81;81.71;97319.97;7381303;19;20308;-68
2022/12/23 13:14:16;;;;;;;;;;;;;;;12.84;81.59;97321.41;7380136;19;19915;-68
2022/12/23 13:16:45;;;;;;;;;;;;;;;12.94;81.23;97313.91;7384851;19;19919;-69
2022/12/23 13:19:24;;;;;;;;;;;;;;;13.00;80.92;97309.63;7380096;19;19918;-67
2022/12/23 13:21:53;;;;;;;;;;;;;;;13.10;80.60;97310.91;7380320;19;20339;-68
2022/12/23 13:24:32;;;;;;;;;;;;;;;13.24;80.06;97303.00;7379575;19;19922;-68
2022/12/23 13:27:01;;;;;;;;;;;;;;;13.15;80.29;97294.38;7380896;19;19914;-68